Terminal Aerodrome Forecast
Issued by NWS Nashville, TN

Home | Current Version | Previous Version | Text Only | Print | Product List | Glossary On
Versions: 1 2 3 4 5 6 7 8 9 10 11 12 13 14 15 16 17 18
000
FTUS44 KOHX 310500
TAFCSV
TAF
KCSV 310538Z 3106/0106 00000KT P6SM OVC080
     FM311500 30005KT P6SM -RA OVC050
     FM311900 31009KT 5SM -RA BR OVC025
     FM312100 31010KT 5SM -RA BR OVC015
     FM010000 32013KT P6SM VCSH OVC007=

USA.gov is the U.S. government's official web portal to all federal, state and local government web resources and services.